Portada
METAR-TAF:

METAR-TAF

Aeropuertos :

Aeropuerto Internacional Maurice Bishop

St. George's, Granada

latitud: 12-00N, longitud: 061-47W, altitud: 6 m

Observación

El informe se hizo hace 1 hora y 4 minutos, a las 01:00 UTC
Viento 6 kt del este-noreste
Temperatura 25°C
Humedad 83%
Presión 1015 hPa
Visibilidad 10 km o más
Escasas nubes a una altura de 1900 ft

METAR: TGPY 130100Z 06006KT 9999 FEW019 25/22 Q1015 NOSIG

Hora: 22:04 (02:04 UTC)

Pronóstico

El informe se hizo hace 3 horas y 38 minutos, a las 22:26 UTC
Pronóstico válido del 13 a las 00 UTC al 13 a las 24 UTC
Viento 10 kt del este
Visibilidad 10 km o más
Escasas nubes a una altura de 1900 ft
Evolucionando progresivamente
del 13 a las 10 UTC al 13 a las 12 UTC
Viento 12 kt del este
Escasas nubes a una altura de 2500 ft

TAF: TGPY 122226Z 1300/1324 08010KT 9999 FEW019 BECMG 1310/1312 09012KT FEW025

Observaciones y pronósticos meteorológicos de más de 4000 aeropuertos (mensajes METAR y TAF).

Los puntos amarillos y rojos representan las estaciones disponibles.

Ponga el ratón en el punto deseado para ver el nombre de la estación.

Haga clic para ver las observaciones y los pronósticos meteorológicos.

Para cambiar el mapa : haga clic en los botones verdes con una cruz de color negro para hacer un zoom, en el botón verde con un guión para alejar o en las flechas verdes para mapas adyacentes.


METAR-TAF: